Time;durP1;ratioP1;P1;durP2;ratioP2;P2;SDS_P1;SDS_P2;PMS_P1;PMS_P2;Temp;Humidity;BMP_temperature;BMP_pressure;BME280_temperature;BME280_humidity;BME280_pressure;Samples;Min_cycle;Max_cycle;Signal;HPM_P1;HPM_P2
2021/01/21 00:01:12;;;;;;;6.97;5.87;;;4.70;85.20;;;;;;5084657;28;20202;-76
2021/01/21 00:03:38;;;;;;;6.13;5.53;;;4.90;84.30;;;;;;5077644;28;20181;-75
2021/01/21 00:06:04;;;;;;;6.47;5.53;;;4.90;84.30;;;;;;5082346;28;20614;-75
2021/01/21 00:08:29;;;;;;;5.97;5.37;;;4.90;83.80;;;;;;5090918;28;20242;-75
2021/01/21 00:10:59;;;;;;;6.27;5.60;;;4.90;83.50;;;;;;5080203;28;20234;-76
2021/01/21 00:13:25;;;;;;;6.57;5.90;;;5.10;82.90;;;;;;5077718;28;20662;-75
2021/01/21 00:15:53;;;;;;;7.53;6.00;;;5.10;82.70;;;;;;5092472;28;20186;-77
2021/01/21 00:18:18;;;;;;;8.23;6.40;;;5.10;82.70;;;;;;5084915;28;20221;-76
2021/01/21 00:20:44;;;;;;;8.67;6.50;;;5.00;83.40;;;;;;5092236;28;20205;-76
2021/01/21 00:23:09;;;;;;;6.70;5.90;;;5.00;83.00;;;;;;5080098;28;20658;-76
2021/01/21 00:25:35;;;;;;;10.17;6.30;;;5.00;83.80;;;;;;5081276;28;20178;-75
2021/01/21 00:28:01;;;;;;;7.63;6.53;;;4.90;85.30;;;;;;5085605;28;20576;-75
2021/01/21 00:30:26;;;;;;;7.83;7.10;;;4.80;86.10;;;;;;5078063;28;20190;-75
2021/01/21 00:32:52;;;;;;;8.57;7.30;;;4.60;86.20;;;;;;5086395;28;20607;-76
2021/01/21 00:35:21;;;;;;;8.90;7.30;;;4.50;87.40;;;;;;5082131;28;20188;-75
2021/01/21 00:37:47;;;;;;;8.63;7.00;;;4.40;87.60;;;;;;5086550;28;20203;-75
2021/01/21 00:40:13;;;;;;;7.87;6.10;;;4.40;88.00;;;;;;5074747;28;20666;-75
2021/01/21 00:42:39;;;;;;;10.20;6.27;;;4.40;88.20;;;;;;5074513;28;20275;-75
2021/01/21 00:45:05;;;;;;;6.87;6.17;;;4.30;88.40;;;;;;5075369;28;20171;-76
2021/01/21 00:47:31;;;;;;;6.97;6.10;;;4.30;88.80;;;;;;5078238;28;20212;-76
2021/01/21 00:49:57;;;;;;;6.70;5.23;;;4.30;88.80;;;;;;5077107;28;20386;-76
2021/01/21 00:52:22;;;;;;;9.20;6.03;;;4.40;88.00;;;;;;5084272;28;20180;-77
2021/01/21 00:54:48;;;;;;;5.20;4.67;;;4.40;86.80;;;;;;5089076;28;20175;-76
2021/01/21 00:57:14;;;;;;;5.60;4.90;;;4.50;86.10;;;;;;5076809;28;20633;-76
2021/01/21 00:59:39;;;;;;;5.93;4.70;;;4.60;85.60;;;;;;5081143;28;20175;-76
2021/01/21 01:02:05;;;;;;;7.40;5.60;;;4.70;85.90;;;;;;5090655;28;20213;-75
2021/01/21 01:04:31;;;;;;;4.50;4.10;;;4.70;85.50;;;;;;5086247;28;20201;-76
2021/01/21 01:06:57;;;;;;;4.90;3.73;;;4.80;83.30;;;;;;5078993;28;20179;-76
2021/01/21 01:09:22;;;;;;;4.47;3.70;;;4.80;82.00;;;;;;5078412;28;20206;-76
2021/01/21 01:11:48;;;;;;;4.30;3.53;;;4.90;81.50;;;;;;5081131;28;20193;-76
2021/01/21 01:14:14;;;;;;;3.70;3.27;;;5.00;80.30;;;;;;5087497;28;20186;-75
2021/01/21 01:16:39;;;;;;;4.13;3.20;;;5.10;79.50;;;;;;5090720;28;20179;-75
2021/01/21 01:19:05;;;;;;;3.57;3.27;;;5.20;78.60;;;;;;5081678;28;20215;-76
2021/01/21 01:21:31;;;;;;;4.17;3.17;;;5.30;79.10;;;;;;5078628;28;20215;-75
2021/01/21 01:23:59;;;;;;;3.40;2.87;;;5.30;77.90;;;;;;5076264;28;20189;-75
2021/01/21 01:26:25;;;;;;;3.63;2.60;;;5.50;74.70;;;;;;5076477;28;20258;-75
2021/01/21 01:28:51;;;;;;;5.57;2.90;;;5.70;71.20;;;;;;5075876;28;20186;-75
2021/01/21 01:31:17;;;;;;;2.33;2.13;;;5.90;69.30;;;;;;5085449;28;20181;-75
2021/01/21 01:33:44;;;;;;;3.23;2.40;;;6.30;67.30;;;;;;5074312;28;20189;-75
2021/01/21 01:36:09;;;;;;;2.50;2.30;;;6.40;66.40;;;;;;5079020;28;20275;-75
2021/01/21 01:38:36;;;;;;;2.33;2.13;;;6.40;64.90;;;;;;5079964;28;20630;-75
2021/01/21 01:41:02;;;;;;;2.97;2.00;;;6.50;65.40;;;;;;5070684;28;20218;-75
2021/01/21 01:43:27;;;;;;;2.10;1.90;;;6.60;63.90;;;;;;5079702;28;20178;-75
2021/01/21 01:45:53;;;;;;;2.40;2.20;;;6.60;65.80;;;;;;5079804;28;20202;-75
2021/01/21 01:48:20;;;;;;;2.30;2.10;;;6.60;65.80;;;;;;5074562;28;20214;-76
2021/01/21 01:50:46;;;;;;;4.53;2.77;;;6.50;66.10;;;;;;5075971;28;20181;-74
2021/01/21 01:53:12;;;;;;;4.10;2.63;;;6.40;68.60;;;;;;5076997;28;20549;-75
2021/01/21 01:55:41;;;;;;;4.13;2.70;;;6.20;68.10;;;;;;5086251;28;20173;-75
2021/01/21 01:58:12;;;;;;;3.73;3.33;;;6.10;69.90;;;;;;5077482;28;20714;-74
2021/01/21 02:00:39;;;;;;;3.83;3.43;;;6.00;71.80;;;;;;5082558;28;20840;-75
2021/01/21 02:03:05;;;;;;;4.20;3.63;;;5.90;71.10;;;;;;5071594;28;20206;-75
2021/01/21 02:05:30;;;;;;;5.10;3.60;;;5.90;71.80;;;;;;5091717;28;20193;-75
2021/01/21 02:07:56;;;;;;;8.77;4.07;;;5.90;72.30;;;;;;5086369;28;20303;-75
2021/01/21 02:10:22;;;;;;;4.20;3.10;;;5.70;73.40;;;;;;5083168;28;20284;-75
2021/01/21 02:13:08;;;;;;;5.33;2.93;;;5.70;73.80;;;;;;5083649;28;20187;-75
2021/01/21 02:15:45;;;;;;;3.97;3.27;;;5.70;73.10;;;;;;5090460;28;20212;-77
2021/01/21 02:18:17;;;;;;;3.63;2.93;;;5.70;71.80;;;;;;5077345;28;20747;-75
2021/01/21 02:21:21;;;;;;;3.10;2.80;;;5.90;70.60;;;;;;5072114;28;20315;-76
2021/01/21 02:24:24;;;;;;;4.57;2.87;;;6.00;70.60;;;;;;5084391;28;20915;-75
2021/01/21 02:26:53;;;;;;;2.57;2.30;;;6.00;71.20;;;;;;5084401;28;20256;-75
2021/01/21 02:29:19;;;;;;;2.43;2.23;;;5.90;72.80;;;;;;5076429;28;20550;-76
2021/01/21 02:32:06;;;;;;;2.30;2.10;;;5.90;72.40;;;;;;5078198;28;20193;-75
2021/01/21 02:34:41;;;;;;;2.00;1.90;;;5.90;71.40;;;;;;5079582;28;20656;-76
2021/01/21 02:37:16;;;;;;;2.33;2.00;;;6.00;71.00;;;;;;5084590;28;20749;-76
2021/01/21 02:39:48;;;;;;;2.67;2.00;;;6.20;68.60;;;;;;5077110;28;20215;-76
2021/01/21 02:42:14;;;;;;;2.37;1.97;;;6.40;67.50;;;;;;5078810;28;20205;-76
2021/01/21 02:44:40;;;;;;;2.10;2.00;;;6.40;68.50;;;;;;5081032;28;20185;-76
2021/01/21 02:47:06;;;;;;;1.90;1.80;;;6.50;66.40;;;;;;5080485;28;20250;-76
2021/01/21 02:49:33;;;;;;;2.07;1.97;;;6.60;65.40;;;;;;5081800;28;20649;-76
2021/01/21 02:52:07;;;;;;;2.00;1.80;;;6.80;62.70;;;;;;5074735;28;20631;-76
2021/01/21 02:54:35;;;;;;;2.77;2.27;;;7.00;62.10;;;;;;5078185;28;20188;-75
2021/01/21 02:57:17;;;;;;;3.00;2.40;;;7.10;60.90;;;;;;5081458;28;20653;-75
2021/01/21 02:59:43;;;;;;;3.03;1.90;;;7.30;59.80;;;;;;5072700;28;20258;-75
2021/01/21 03:02:11;;;;;;;2.03;1.93;;;7.30;60.20;;;;;;5076346;28;20236;-75
2021/01/21 03:04:39;;;;;;;2.20;2.00;;;7.10;62.50;;;;;;5078536;28;20183;-76
2021/01/21 03:07:07;;;;;;;2.20;2.00;;;6.80;64.20;;;;;;5081341;28;20181;-76
2021/01/21 03:09:34;;;;;;;3.70;2.40;;;6.70;63.60;;;;;;5078927;28;20182;-76
2021/01/21 03:12:20;;;;;;;2.77;2.40;;;6.70;63.60;;;;;;5077836;28;20227;-75
2021/01/21 03:14:47;;;;;;;2.50;2.30;;;6.80;63.30;;;;;;5086929;28;20198;-74
2021/01/21 04:17:52;;;;;;;3.10;2.00;;;7.70;56.40;;;;;;5070619;28;20281;-75
2021/01/21 04:20:19;;;;;;;4.93;1.90;;;7.80;55.60;;;;;;5080499;28;20328;-74
2021/01/21 04:22:45;;;;;;;2.07;1.87;;;7.90;55.90;;;;;;5079780;28;20801;-75
2021/01/21 04:25:11;;;;;;;2.00;1.80;;;7.90;55.70;;;;;;5086668;28;20191;-75
2021/01/21 04:27:37;;;;;;;3.40;2.00;;;8.00;55.10;;;;;;5084849;28;20205;-76
2021/01/21 04:30:03;;;;;;;2.93;1.93;;;8.20;54.50;;;;;;5082394;28;20236;-74
2021/01/21 04:32:29;;;;;;;2.27;1.90;;;8.30;54.10;;;;;;5082705;28;20182;-75
2021/01/21 04:34:55;;;;;;;2.00;1.70;;;8.30;54.00;;;;;;5085979;28;20555;-75
2021/01/21 04:37:20;;;;;;;2.40;1.77;;;8.40;53.80;;;;;;5079653;28;20206;-78
2021/01/21 04:39:46;;;;;;;2.90;1.70;;;8.40;53.90;;;;;;5088504;28;20193;-78
2021/01/21 04:42:11;;;;;;;2.13;1.50;;;8.40;54.30;;;;;;5092173;28;20586;-78
2021/01/21 04:44:37;;;;;;;2.13;1.70;;;8.40;54.40;;;;;;5082366;28;20178;-78
2021/01/21 04:47:03;;;;;;;1.57;1.47;;;8.40;54.30;;;;;;5094653;28;20178;-77
2021/01/21 04:49:31;;;;;;;4.93;1.50;;;8.50;53.80;;;;;;5084199;28;20171;-78
2021/01/21 04:52:03;;;;;;;1.33;1.23;;;8.60;53.40;;;;;;5086279;28;20187;-79
2021/01/21 04:54:36;;;;;;;2.10;1.80;;;8.90;52.60;;;;;;5087385;28;20255;-79
2021/01/21 04:57:04;;;;;;;1.40;1.30;;;9.20;51.50;;;;;;5080243;28;20190;-78
2021/01/21 04:59:37;;;;;;;2.00;1.60;;;9.30;51.10;;;;;;5086796;28;20240;-77
2021/01/21 05:02:04;;;;;;;1.40;1.30;;;9.50;50.50;;;;;;5083378;28;20738;-78
2021/01/21 05:04:30;;;;;;;3.00;1.60;;;9.60;50.10;;;;;;5084600;28;20175;-77
2021/01/21 05:06:56;;;;;;;1.30;1.20;;;9.70;50.10;;;;;;5092404;28;20174;-78
2021/01/21 05:09:22;;;;;;;1.23;1.23;;;9.70;49.80;;;;;;5085226;28;20181;-78
2021/01/21 05:11:48;;;;;;;2.17;1.60;;;9.70;49.90;;;;;;5079607;28;20179;-78
2021/01/21 05:14:14;;;;;;;1.30;1.20;;;9.60;50.10;;;;;;5080991;28;20603;-78
2021/01/21 05:16:44;;;;;;;2.20;1.40;;;9.70;50.20;;;;;;5080459;28;20179;-77
2021/01/21 05:19:14;;;;;;;1.37;1.27;;;9.60;50.50;;;;;;5091988;28;20260;-77
2021/01/21 05:21:43;;;;;;;5.23;1.40;;;9.60;50.30;;;;;;5086534;28;20206;-78
2021/01/21 05:24:10;;;;;;;1.47;1.37;;;9.50;50.20;;;;;;5084370;28;20182;-78
2021/01/21 05:26:38;;;;;;;1.43;1.33;;;9.60;49.80;;;;;;5092799;28;20187;-80
2021/01/21 05:29:04;;;;;;;1.67;1.43;;;9.70;49.40;;;;;;5083453;28;20212;-79
2021/01/21 05:31:32;;;;;;;1.33;1.20;;;9.80;49.30;;;;;;5083836;28;20179;-77
2021/01/21 05:33:58;;;;;;;2.20;1.30;;;9.80;49.10;;;;;;5083814;28;20184;-79
2021/01/21 05:36:25;;;;;;;1.53;1.33;;;9.80;49.40;;;;;;5077787;28;20182;-76
2021/01/21 05:38:57;;;;;;;1.27;1.17;;;9.70;49.60;;;;;;5076710;28;20202;-77
2021/01/21 05:41:24;;;;;;;2.10;1.30;;;9.70;49.70;;;;;;5082231;28;20213;-77
2021/01/21 05:43:50;;;;;;;1.70;1.60;;;9.60;49.90;;;;;;5080940;28;20948;-75
2021/01/21 05:46:18;;;;;;;1.40;1.30;;;9.60;49.80;;;;;;5084999;28;20190;-76
2021/01/21 05:48:44;;;;;;;1.53;1.43;;;9.70;49.70;;;;;;5078431;28;20282;-76
2021/01/21 05:51:15;;;;;;;1.57;1.40;;;9.60;49.70;;;;;;5085192;28;20209;-77
2021/01/21 05:53:41;;;;;;;1.87;1.17;;;9.60;49.80;;;;;;5079337;28;20267;-77
2021/01/21 05:56:11;;;;;;;1.40;1.30;;;9.60;50.00;;;;;;5083242;28;20187;-76
2021/01/21 05:58:40;;;;;;;1.37;1.27;;;9.60;50.10;;;;;;5078545;28;20195;-76
2021/01/21 06:01:06;;;;;;;1.57;1.30;;;9.60;49.60;;;;;;5077434;28;20822;-77
2021/01/21 06:03:35;;;;;;;1.30;1.20;;;9.70;49.30;;;;;;5081996;28;20187;-76
2021/01/21 06:06:11;;;;;;;1.70;1.30;;;9.90;48.90;;;;;;5086324;28;20421;-76
2021/01/21 06:08:43;;;;;;;1.83;1.53;;;9.90;48.70;;;;;;5072308;28;20198;-76
2021/01/21 06:11:09;;;;;;;1.27;1.10;;;10.00;48.80;;;;;;5073885;28;20217;-77
2021/01/21 06:13:40;;;;;;;2.57;1.30;;;10.00;48.40;;;;;;5077847;28;20554;-76
2021/01/21 06:16:08;;;;;;;1.50;1.40;;;10.00;48.60;;;;;;5075222;28;20323;-76
2021/01/21 06:18:34;;;;;;;2.10;1.20;;;9.90;48.40;;;;;;5081797;28;20209;-76
2021/01/21 06:21:01;;;;;;;2.23;1.20;;;9.90;48.90;;;;;;5075244;28;20202;-81
2021/01/21 06:23:31;;;;;;;1.60;1.50;;;9.80;48.70;;;;;;5084761;28;20641;-77
2021/01/21 06:25:58;;;;;;;1.53;1.43;;;9.80;49.30;;;;;;5077121;28;20323;-77
2021/01/21 06:28:26;;;;;;;1.60;1.50;;;9.70;49.60;;;;;;5084932;28;20222;-77
2021/01/21 06:30:53;;;;;;;1.70;1.57;;;9.60;49.90;;;;;;5081379;28;20179;-77
2021/01/21 06:33:25;;;;;;;1.40;1.30;;;9.60;50.00;;;;;;5078636;28;20186;-76
2021/01/21 06:36:02;;;;;;;1.50;1.40;;;9.40;50.50;;;;;;5083078;28;20216;-76
2021/01/21 06:38:35;;;;;;;2.50;1.67;;;9.40;50.60;;;;;;5071003;28;20233;-77
2021/01/21 06:41:02;;;;;;;1.77;1.47;;;9.40;50.70;;;;;;5076790;28;20179;-76
2021/01/21 06:43:39;;;;;;;1.20;1.10;;;9.40;50.30;;;;;;5082655;28;20182;-75
2021/01/21 06:46:13;;;;;;;1.63;1.50;;;9.50;50.30;;;;;;5072755;28;20227;-75
2021/01/21 06:48:46;;;;;;;1.63;1.53;;;9.50;50.20;;;;;;5081951;28;20191;-78
2021/01/21 06:51:14;;;;;;;2.93;1.50;;;9.60;49.90;;;;;;5077118;28;20210;-78
2021/01/21 06:53:49;;;;;;;1.53;1.43;;;9.70;49.80;;;;;;5081295;28;20187;-78
2021/01/21 06:56:15;;;;;;;1.50;1.40;;;9.70;50.20;;;;;;5074995;28;20186;-77
2021/01/21 06:58:51;;;;;;;2.47;1.30;;;9.90;50.40;;;;;;5072251;28;20574;-80
2021/01/21 07:01:29;;;;;;;1.60;1.50;;;10.00;50.50;;;;;;5078919;28;20216;-78
2021/01/21 07:04:21;;;;;;;1.73;1.50;;;10.20;50.80;;;;;;5080113;28;20218;-77
2021/01/21 07:06:49;;;;;;;2.63;1.30;;;10.20;51.80;;;;;;5077954;28;20187;-79
2021/01/21 07:09:17;;;;;;;1.87;1.50;;;10.40;53.10;;;;;;5077655;28;20293;-75
2021/01/21 07:11:47;;;;;;;2.10;1.50;;;10.40;54.00;;;;;;5075749;28;20214;-78
2021/01/21 07:14:17;;;;;;;3.20;1.50;;;10.50;54.40;;;;;;5096256;28;20182;-77
2021/01/21 07:16:53;;;;;;;1.53;1.43;;;10.40;54.80;;;;;;5082778;28;20201;-79
2021/01/21 07:19:28;;;;;;;1.43;1.33;;;10.50;54.90;;;;;;5074538;28;20241;-79
2021/01/21 07:21:57;;;;;;;1.30;1.10;;;10.40;55.30;;;;;;5079430;28;20336;-77
2021/01/21 07:24:23;;;;;;;1.60;1.50;;;10.40;55.60;;;;;;5073259;28;20214;-76
2021/01/21 07:26:52;;;;;;;2.27;1.50;;;10.40;55.60;;;;;;5074769;28;20170;-77
2021/01/21 07:29:22;;;;;;;2.80;1.50;;;10.30;56.10;;;;;;5083752;28;20202;-76
2021/01/21 07:31:56;;;;;;;1.50;1.30;;;10.30;56.60;;;;;;5081056;28;20574;-77
2021/01/21 07:34:37;;;;;;;2.50;1.40;;;10.30;56.60;;;;;;5078859;28;21208;-75
2021/01/21 07:37:24;;;;;;;1.37;1.20;;;10.30;56.50;;;;;;5079299;28;20239;-77
2021/01/21 07:40:06;;;;;;;1.40;1.30;;;10.20;56.80;;;;;;5075977;28;20175;-77
2021/01/21 07:42:44;;;;;;;1.93;1.30;;;10.10;57.20;;;;;;5073180;28;20218;-76
2021/01/21 07:45:20;;;;;;;1.57;1.47;;;10.10;57.40;;;;;;5077713;28;20181;-76
2021/01/21 07:47:48;;;;;;;1.20;1.20;;;10.10;57.70;;;;;;5073792;28;20226;-78
2021/01/21 07:50:26;;;;;;;3.40;1.40;;;10.20;57.70;;;;;;5076173;28;20560;-76
2021/01/21 07:53:06;;;;;;;1.47;1.30;;;10.20;57.80;;;;;;5078107;28;20178;-78
2021/01/21 07:55:33;;;;;;;1.30;1.20;;;10.20;57.80;;;;;;5077408;28;20209;-76
2021/01/21 07:58:19;;;;;;;1.50;1.40;;;10.50;57.70;;;;;;5076579;28;20560;-79
2021/01/21 08:00:47;;;;;;;2.87;1.43;;;10.60;57.00;;;;;;5078582;28;20193;-77
2021/01/21 08:03:14;;;;;;;1.67;1.20;;;10.50;57.50;;;;;;5082014;28;20210;-78
2021/01/21 08:05:42;;;;;;;1.37;1.27;;;10.50;57.80;;;;;;5081945;28;20182;-77
2021/01/21 08:08:10;;;;;;;1.63;1.40;;;10.60;57.90;;;;;;5083459;28;20210;-77
2021/01/21 08:10:37;;;;;;;1.50;1.40;;;11.20;57.20;;;;;;5084270;28;20186;-76
2021/01/21 08:13:05;;;;;;;1.20;1.07;;;12.20;54.50;;;;;;5090659;28;20661;-75
2021/01/21 08:15:32;;;;;;;1.30;1.20;;;12.60;53.60;;;;;;5087290;28;20529;-76
2021/01/21 08:17:59;;;;;;;1.60;1.20;;;12.80;53.50;;;;;;5092857;28;20786;-77
2021/01/21 08:20:27;;;;;;;1.40;1.30;;;12.40;54.40;;;;;;5092178;28;20224;-76
2021/01/21 08:23:00;;;;;;;2.67;1.03;;;11.90;55.90;;;;;;5094723;28;20209;-77
2021/01/21 08:25:28;;;;;;;1.10;1.10;;;11.60;57.00;;;;;;5079937;28;20179;-77
2021/01/21 08:27:55;;;;;;;1.53;1.03;;;11.50;57.60;;;;;;5085240;28;20500;-77
2021/01/21 08:30:41;;;;;;;1.00;1.00;;;12.50;56.30;;;;;;5090200;28;20182;-74
2021/01/21 08:33:20;;;;;;;1.20;1.08;;;13.70;52.80;;;;;;5088498;28;20193;-76
2021/01/21 08:35:57;;;;;;;1.00;0.95;;;13.90;51.20;;;;;;5089279;28;20245;-75
2021/01/21 08:38:47;;;;;;;1.23;1.10;;;13.10;52.80;;;;;;5084331;28;20206;-74
2021/01/21 08:41:14;;;;;;;2.10;1.10;;;12.20;55.10;;;;;;5085143;28;20193;-73
2021/01/21 08:43:47;;;;;;;1.00;1.00;;;11.80;56.30;;;;;;5074097;28;20205;-75
2021/01/21 08:46:22;;;;;;;2.03;1.83;;;11.70;56.80;;;;;;5089698;27;20657;-74
2021/01/21 08:48:49;;;;;;;1.10;1.00;;;11.70;57.10;;;;;;5087126;28;20223;-74
2021/01/21 08:51:35;;;;;;;1.10;1.10;;;11.90;56.70;;;;;;5084245;28;20198;-74
2021/01/21 08:54:25;;;;;;;1.30;1.20;;;13.10;55.00;;;;;;5074836;28;20229;-75
2021/01/21 08:57:11;;;;;;;1.38;1.05;;;13.50;53.00;;;;;;5087030;28;20239;-74
2021/01/21 08:59:38;;;;;;;1.20;1.10;;;13.20;53.30;;;;;;5077195;28;20194;-74
2021/01/21 09:02:05;;;;;;;1.27;1.13;;;13.40;53.70;;;;;;5079656;28;20636;-74
2021/01/21 09:04:35;;;;;;;1.20;1.10;;;15.30;50.00;;;;;;5083671;28;20257;-74
2021/01/21 09:07:02;;;;;;;2.45;1.05;;;16.60;46.50;;;;;;5086342;28;20669;-76
2021/01/21 09:09:36;;;;;;;2.10;1.10;;;16.50;45.50;;;;;;5078977;28;20290;-75
2021/01/21 09:12:14;;;;;;;1.20;1.10;;;15.40;47.80;;;;;;5076376;28;20177;-75
2021/01/21 09:14:41;;;;;;;1.30;1.20;;;15.10;49.30;;;;;;5077353;28;20179;-75
2021/01/21 09:17:17;;;;;;;1.42;1.00;;;16.40;47.00;;;;;;5082840;28;20265;-75
2021/01/21 09:19:45;;;;;;;1.10;1.00;;;17.70;44.10;;;;;;5083732;28;20240;-74
2021/01/21 09:22:22;;;;;;;0.70;0.70;;;17.70;43.00;;;;;;5082392;28;20213;-75
2021/01/21 09:25:04;;;;;;;1.02;1.02;;;15.60;46.80;;;;;;5078946;28;20167;-73
2021/01/21 09:27:32;;;;;;;1.02;0.90;;;16.50;46.60;;;;;;5084066;28;20195;-74
2021/01/21 09:30:11;;;;;;;0.80;0.80;;;17.90;43.50;;;;;;5087238;28;20657;-74
2021/01/21 09:32:40;;;;;;;2.35;0.82;;;19.00;41.30;;;;;;5084336;28;20186;-75
2021/01/21 09:35:16;;;;;;;0.90;0.80;;;19.20;40.60;;;;;;5075561;28;20668;-75
2021/01/21 09:37:57;;;;;;;2.05;0.80;;;19.00;40.70;;;;;;5081849;28;20569;-75
2021/01/21 09:40:28;;;;;;;0.88;0.88;;;19.90;40.00;;;;;;5071780;28;20187;-75
2021/01/21 09:42:59;;;;;;;1.02;0.85;;;20.20;38.30;;;;;;5084018;28;20240;-74
2021/01/21 09:45:26;;;;;;;0.90;0.90;;;18.70;39.90;;;;;;5083729;28;20607;-75
2021/01/21 09:47:54;;;;;;;1.05;0.90;;;17.50;43.10;;;;;;5077860;28;20206;-75
2021/01/21 09:50:21;;;;;;;1.10;0.80;;;16.40;45.30;;;;;;5077407;28;20179;-74
2021/01/21 09:52:47;;;;;;;1.08;0.95;;;15.10;48.00;;;;;;5077419;28;20262;-74
2021/01/21 09:55:14;;;;;;;1.10;0.98;;;15.20;49.00;;;;;;5076363;28;20591;-74
2021/01/21 09:57:40;;;;;;;0.80;0.80;;;16.50;46.40;;;;;;5082243;28;20209;-73
2021/01/21 10:00:08;;;;;;;0.70;0.70;;;16.80;45.60;;;;;;5074226;28;20175;-74
2021/01/21 10:02:34;;;;;;;1.42;1.00;;;18.10;43.50;;;;;;5076659;28;20633;-74
2021/01/21 10:04:59;;;;;;;1.70;0.85;;;18.40;42.20;;;;;;5077399;28;20182;-74
2021/01/21 10:07:25;;;;;;;1.08;0.98;;;19.50;40.60;;;;;;5076636;28;20194;-74
2021/01/21 10:09:50;;;;;;;0.80;0.80;;;20.60;38.70;;;;;;5076239;28;20675;-74
2021/01/21 10:12:16;;;;;;;1.80;1.10;;;20.80;37.80;;;;;;5079388;28;20263;-74
2021/01/21 10:14:42;;;;;;;0.75;0.75;;;20.10;39.00;;;;;;5084798;28;20178;-74
2021/01/21 10:17:08;;;;;;;0.70;0.70;;;19.90;38.80;;;;;;5078926;28;20221;-74
2021/01/21 10:19:35;;;;;;;1.63;1.00;;;18.80;40.70;;;;;;5082254;28;20270;-74
2021/01/21 10:22:00;;;;;;;1.15;0.90;;;18.90;41.60;;;;;;5071902;28;20215;-75
2021/01/21 10:24:28;;;;;;;0.70;0.70;;;19.50;40.70;;;;;;5079723;28;20189;-74
2021/01/21 10:26:53;;;;;;;1.38;0.90;;;20.60;37.90;;;;;;5082675;28;20235;-76
2021/01/21 10:29:19;;;;;;;1.25;0.80;;;19.30;39.30;;;;;;5076789;28;20198;-75
2021/01/21 10:31:45;;;;;;;1.15;0.70;;;19.90;38.90;;;;;;5077076;28;20179;-75
2021/01/21 10:34:11;;;;;;;1.42;0.82;;;19.80;38.60;;;;;;5087195;28;20182;-75
2021/01/21 10:36:38;;;;;;;1.35;0.68;;;20.00;38.40;;;;;;5077257;28;20309;-76
2021/01/21 10:39:05;;;;;;;1.05;0.80;;;20.00;38.10;;;;;;5071534;28;20870;-74
2021/01/21 10:41:32;;;;;;;1.73;0.80;;;19.30;39.20;;;;;;5078155;28;20213;-74
2021/01/21 10:43:58;;;;;;;0.82;0.82;;;18.00;41.60;;;;;;5078583;28;20224;-74
2021/01/21 10:46:25;;;;;;;0.77;0.77;;;16.60;44.30;;;;;;5080244;28;20173;-75
2021/01/21 10:48:50;;;;;;;1.00;0.90;;;16.00;45.80;;;;;;5076655;28;20285;-74
2021/01/21 10:51:16;;;;;;;2.72;1.10;;;15.50;47.60;;;;;;5078804;28;20228;-75
2021/01/21 10:53:43;;;;;;;1.15;1.05;;;16.60;46.40;;;;;;5074008;28;20183;-75
2021/01/21 10:56:09;;;;;;;1.67;1.30;;;18.70;42.50;;;;;;5077753;28;20177;-75
2021/01/21 10:58:46;;;;;;;1.30;1.05;;;20.70;38.90;;;;;;5082258;28;20613;-76
2021/01/21 11:01:13;;;;;;;1.15;0.75;;;22.00;36.30;;;;;;5076017;28;20653;-76
2021/01/21 11:03:39;;;;;;;1.02;0.90;;;23.20;34.30;;;;;;5073077;28;20262;-76
2021/01/21 11:06:05;;;;;;;4.28;2.53;;;24.40;32.30;;;;;;5076722;28;20568;-77
2021/01/21 11:08:31;;;;;;;2.67;1.30;;;24.10;31.80;;;;;;5075922;28;20198;-77
2021/01/21 11:10:57;;;;;;;1.33;0.90;;;24.20;32.00;;;;;;5077589;28;20808;-77
2021/01/21 11:13:23;;;;;;;1.25;0.60;;;23.80;32.10;;;;;;5074029;28;20790;-77
2021/01/21 11:15:49;;;;;;;1.75;0.50;;;24.50;31.60;;;;;;5086163;28;20213;-75
2021/01/21 11:18:16;;;;;;;0.68;0.60;;;24.90;31.10;;;;;;5074301;28;20818;-76
2021/01/21 11:20:42;;;;;;;1.10;0.45;;;25.10;30.40;;;;;;5077796;28;20190;-77
2021/01/21 11:23:09;;;;;;;0.68;0.40;;;23.80;31.00;;;;;;5081750;28;20292;-76
2021/01/21 11:25:35;;;;;;;0.52;0.52;;;21.60;35.40;;;;;;5081412;28;20181;-75
2021/01/21 11:28:01;;;;;;;0.70;0.70;;;21.00;36.20;;;;;;5076228;28;20769;-74
2021/01/21 11:30:27;;;;;;;0.90;0.80;;;21.00;36.90;;;;;;5074975;28;20185;-75
2021/01/21 11:32:53;;;;;;;1.05;0.90;;;20.10;37.70;;;;;;5077872;28;20296;-75
2021/01/21 11:35:19;;;;;;;0.98;0.77;;;18.50;40.50;;;;;;5078391;28;20186;-77
2021/01/21 11:37:45;;;;;;;1.08;1.00;;;17.20;43.70;;;;;;5073295;28;20252;-76
2021/01/21 11:40:12;;;;;;;0.85;0.80;;;16.90;44.50;;;;;;5077994;28;20270;-73
2021/01/21 11:42:38;;;;;;;1.08;0.98;;;16.20;46.10;;;;;;5080037;28;20209;-74
2021/01/21 11:45:05;;;;;;;1.30;1.20;;;15.80;47.60;;;;;;5072440;28;20507;-74
2021/01/21 11:47:39;;;;;;;0.95;0.90;;;15.60;48.40;;;;;;5077431;28;20203;-74
2021/01/21 11:50:06;;;;;;;1.10;1.00;;;15.20;49.00;;;;;;5083380;28;20591;-77
2021/01/21 11:52:33;;;;;;;1.58;0.82;;;14.90;49.70;;;;;;5075558;28;20261;-75
2021/01/21 11:54:59;;;;;;;1.25;1.15;;;14.70;50.60;;;;;;5077227;28;20729;-76
2021/01/21 11:57:25;;;;;;;3.03;1.13;;;14.60;50.70;;;;;;5075810;28;20285;-76
2021/01/21 11:59:51;;;;;;;0.80;0.80;;;14.50;50.90;;;;;;5080419;28;20270;-74
2021/01/21 12:02:17;;;;;;;1.20;1.10;;;14.30;51.40;;;;;;5078461;28;20292;-74
2021/01/21 12:04:43;;;;;;;0.93;0.93;;;14.20;51.80;;;;;;5076655;28;20182;-74
2021/01/21 12:07:09;;;;;;;1.45;1.05;;;14.00;52.30;;;;;;5079216;28;20182;-77
2021/01/21 12:09:35;;;;;;;1.25;1.15;;;14.10;52.30;;;;;;5073739;28;20183;-76
2021/01/21 12:12:01;;;;;;;0.95;0.95;;;14.30;52.40;;;;;;5080103;28;20193;-75
2021/01/21 12:14:27;;;;;;;1.10;1.10;;;14.40;51.90;;;;;;5077173;28;20242;-76
2021/01/21 12:16:53;;;;;;;3.13;1.30;;;14.40;52.30;;;;;;5087025;28;20205;-75
2021/01/21 12:19:19;;;;;;;1.20;1.10;;;14.30;52.30;;;;;;5075112;28;20249;-76
2021/01/21 12:21:48;;;;;;;1.40;1.30;;;14.20;52.40;;;;;;5072351;28;20229;-75
2021/01/21 12:24:16;;;;;;;1.30;1.20;;;14.20;52.10;;;;;;5072062;28;20684;-75
2021/01/21 12:26:43;;;;;;;1.48;1.38;;;14.20;52.70;;;;;;5073006;28;20190;-75
2021/01/21 12:29:18;;;;;;;1.55;1.10;;;14.00;53.20;;;;;;5079462;28;20209;-77
2021/01/21 12:31:45;;;;;;;1.30;1.17;;;13.80;53.20;;;;;;5080779;28;20312;-75
2021/01/21 12:34:11;;;;;;;1.45;1.00;;;13.50;54.30;;;;;;5081375;28;20590;-78
2021/01/21 12:36:37;;;;;;;1.08;1.08;;;13.20;54.90;;;;;;5077532;28;20193;-77
2021/01/21 12:39:03;;;;;;;1.30;1.20;;;13.00;55.30;;;;;;5074927;28;20206;-77
2021/01/21 12:41:29;;;;;;;1.45;1.00;;;13.10;55.90;;;;;;5075526;28;20207;-77
2021/01/21 12:43:55;;;;;;;1.30;1.20;;;13.20;55.60;;;;;;5079021;28;20680;-77
2021/01/21 12:46:23;;;;;;;1.63;1.30;;;13.50;55.40;;;;;;5088095;28;20186;-75
2021/01/21 12:48:49;;;;;;;0.93;0.93;;;13.80;55.00;;;;;;5083863;28;20191;-77
2021/01/21 12:51:16;;;;;;;1.80;1.30;;;14.10;54.10;;;;;;5083257;28;20776;-76
2021/01/21 12:53:44;;;;;;;1.40;1.30;;;14.40;53.60;;;;;;5078666;28;20186;-75
2021/01/21 12:56:10;;;;;;;1.13;1.02;;;14.50;52.70;;;;;;5076761;28;20183;-75
2021/01/21 12:58:36;;;;;;;1.65;1.50;;;14.50;52.80;;;;;;5077635;28;20210;-76
2021/01/21 13:01:02;;;;;;;1.15;1.05;;;14.40;53.50;;;;;;5082447;28;20235;-75
2021/01/21 13:03:27;;;;;;;2.45;1.20;;;14.20;54.40;;;;;;5078235;28;20352;-75
2021/01/21 13:05:53;;;;;;;1.20;1.10;;;13.90;54.30;;;;;;5082263;28;20182;-75
2021/01/21 13:08:19;;;;;;;1.00;0.95;;;13.90;54.60;;;;;;5076398;28;20199;-79
2021/01/21 13:10:44;;;;;;;1.23;1.13;;;14.10;54.30;;;;;;5081483;28;20178;-75
2021/01/21 13:13:13;;;;;;;1.33;1.10;;;14.60;53.70;;;;;;5089763;28;20253;-75
2021/01/21 13:15:40;;;;;;;1.30;1.20;;;14.80;52.40;;;;;;5096221;28;20242;-76
2021/01/21 13:18:05;;;;;;;1.30;1.02;;;14.40;53.00;;;;;;5084589;28;20226;-74
2021/01/21 13:20:31;;;;;;;1.55;1.30;;;14.10;54.10;;;;;;5079303;28;20253;-75
2021/01/21 13:22:57;;;;;;;1.13;0.90;;;13.80;55.00;;;;;;5083691;28;20567;-75
2021/01/21 13:25:22;;;;;;;1.63;1.10;;;13.80;55.10;;;;;;5074679;28;20186;-74
2021/01/21 13:27:49;;;;;;;1.52;1.05;;;13.70;55.70;;;;;;5082930;28;20194;-75
2021/01/21 13:30:15;;;;;;;1.27;1.17;;;13.50;56.00;;;;;;5078493;28;20775;-75
2021/01/21 13:32:41;;;;;;;1.60;1.20;;;13.50;57.30;;;;;;5076998;28;20553;-75
2021/01/21 13:35:07;;;;;;;2.13;1.30;;;13.50;57.20;;;;;;5077283;28;20194;-75
2021/01/21 13:37:33;;;;;;;1.25;1.20;;;13.40;57.30;;;;;;5081812;28;20688;-74
2021/01/21 13:39:59;;;;;;;1.55;1.30;;;13.20;58.20;;;;;;5076065;28;20228;-75
2021/01/21 13:42:27;;;;;;;1.17;1.13;;;13.10;59.00;;;;;;5085573;28;20284;-74
2021/01/21 13:44:53;;;;;;;1.60;1.50;;;13.00;59.40;;;;;;5073160;28;20187;-75
2021/01/21 13:47:19;;;;;;;1.10;1.00;;;13.00;59.40;;;;;;5079267;28;20178;-76
2021/01/21 13:49:44;;;;;;;1.38;1.30;;;12.90;60.00;;;;;;5076387;28;20512;-74
2021/01/21 13:52:10;;;;;;;1.17;1.02;;;12.90;60.40;;;;;;5077528;28;20223;-74
2021/01/21 13:54:36;;;;;;;1.80;1.27;;;12.80;60.80;;;;;;5074838;28;20194;-76
2021/01/21 13:57:01;;;;;;;1.30;1.20;;;12.70;61.90;;;;;;5070961;28;20898;-72
2021/01/21 13:59:27;;;;;;;2.05;0.77;;;12.60;62.90;;;;;;5073472;28;20591;-76